Time;durP1;ratioP1;P1;durP2;ratioP2;P2;SDS_P1;SDS_P2;PMS_P1;PMS_P2;Temp;Humidity;BMP_temperature;BMP_pressure;BME280_temperature;BME280_humidity;BME280_pressure;Samples;Min_cycle;Max_cycle;Signal;HPM_P1;HPM_P2
2022/12/17 13:06:49;;;;;;;;;;;;;;;11.95;89.55;99828.84;4931471;29;19962;-93
2022/12/17 13:09:14;;;;;;;;;;;;;;;12.05;90.07;99824.25;4927881;29;20366;-93
2022/12/17 13:11:41;;;;;;;;;;;;;;;11.93;90.03;99820.94;4945404;29;19923;-92
2022/12/17 13:14:15;;;;;;;;;;;;;;;11.50;92.06;99808.47;4949819;29;19933;-84
2022/12/17 13:16:49;;;;;;;;;;;;;;;11.44;92.08;99821.78;4946972;29;19925;-89
2022/12/17 13:19:30;;;;;;;;;;;;;;;11.53;92.78;99820.75;4940456;29;19922;-88
2022/12/17 13:21:55;;;;;;;;;;;;;;;11.47;92.70;99817.28;4949548;29;19922;-90
2022/12/17 13:24:27;;;;;;;;;;;;;;;11.72;91.61;99818.66;4953948;29;19914;-96
2022/12/17 13:26:52;;;;;;;;;;;;;;;11.96;90.63;99833.25;4931913;29;19923;-94
2022/12/17 13:29:52;;;;;;;;;;;;;;;12.02;89.62;99840.16;4930847;29;19998;-95
2022/12/17 13:32:26;;;;;;;;;;;;;;;12.06;90.74;99850.66;4923523;29;19914;-94
2022/12/17 13:35:20;;;;;;;;;;;;;;;12.08;90.48;99859.47;4951104;29;19914;-92
2022/12/17 13:37:58;;;;;;;;;;;;;;;12.13;89.75;99862.00;4937842;29;20374;-93
2022/12/17 13:40:30;;;;;;;;;;;;;;;12.43;87.88;99867.59;4958440;29;19926;-96
2022/12/17 13:42:56;;;;;;;;;;;;;;;12.70;85.78;99869.69;4959001;29;19950;-96
2022/12/17 13:45:23;;;;;;;;;;;;;;;12.68;85.53;99874.16;4938466;29;19919;-96
2022/12/17 13:47:56;;;;;;;;;;;;;;;12.75;84.98;99868.72;4957334;29;19918;-95
2022/12/17 13:50:27;;;;;;;;;;;;;;;12.79;84.09;99875.69;4958469;29;20426;-96
2022/12/17 13:52:52;;;;;;;;;;;;;;;12.67;83.93;99879.47;4939069;29;19919;-96
2022/12/17 13:55:25;;;;;;;;;;;;;;;12.66;83.71;99878.59;4934486;29;20374;-96
2022/12/17 13:57:52;;;;;;;;;;;;;;;12.34;85.39;99895.09;4953968;29;20786;-95
2022/12/17 14:00:23;;;;;;;;;;;;;;;12.26;86.64;99889.09;4935490;29;20389;-94
2022/12/17 14:02:49;;;;;;;;;;;;;;;12.05;87.88;99874.47;4950505;29;19919;-93
2022/12/17 14:05:21;;;;;;;;;;;;;;;12.20;87.14;99882.13;4952338;28;19925;-93
2022/12/17 14:07:46;;;;;;;;;;;;;;;12.15;87.06;99879.56;4943127;29;19957;-94
2022/12/17 14:10:14;;;;;;;;;;;;;;;12.24;86.26;99875.91;4956198;29;20039;-93
2022/12/17 14:12:41;;;;;;;;;;;;;;;12.21;86.17;99890.97;4955801;29;19937;-92
2022/12/17 14:15:16;;;;;;;;;;;;;;;12.32;85.77;99888.97;4954465;29;20532;-94
2022/12/17 14:17:44;;;;;;;;;;;;;;;12.50;84.84;99891.25;4954531;29;19914;-92
2022/12/17 14:20:19;;;;;;;;;;;;;;;12.43;83.69;99891.41;4952907;29;19914;-89
2022/12/17 14:23:10;;;;;;;;;;;;;;;12.50;83.33;99893.06;4953517;29;20018;-93
2022/12/17 14:25:37;;;;;;;;;;;;;;;12.32;84.44;99884.53;4923469;29;19918;-96
2022/12/17 14:28:20;;;;;;;;;;;;;;;12.41;83.76;99893.22;4959436;29;19919;-96
2022/12/17 14:30:45;;;;;;;;;;;;;;;12.33;83.83;99894.22;4959752;29;19925;-95
2022/12/17 14:33:27;;;;;;;;;;;;;;;12.44;83.72;99894.03;4963377;29;19918;-96
2022/12/17 14:35:55;;;;;;;;;;;;;;;12.35;83.06;99892.41;4959155;29;20360;-91
2022/12/17 14:38:22;;;;;;;;;;;;;;;11.74;85.40;99882.91;4962013;29;19938;-96
2022/12/17 14:40:54;;;;;;;;;;;;;;;11.53;86.81;99881.50;4939388;29;20009;-93
2022/12/17 14:43:27;;;;;;;;;;;;;;;11.58;87.01;99879.66;4956690;29;20345;-92
2022/12/17 14:49:00;;;;;;;;;;;;;;;11.34;89.71;99880.91;4961469;28;19994;-95
2022/12/17 14:51:39;;;;;;;;;;;;;;;11.63;87.91;99897.19;4955712;29;19918;-94
2022/12/17 14:54:18;;;;;;;;;;;;;;;11.51;87.42;99913.25;4959256;29;20049;-96
2022/12/17 14:56:47;;;;;;;;;;;;;;;11.00;89.10;99907.78;4963412;29;19918;-94
2022/12/17 14:59:32;;;;;;;;;;;;;;;11.08;90.80;99912.09;4952770;29;20006;-95
2022/12/17 15:02:04;;;;;;;;;;;;;;;11.31;89.32;99921.47;4962127;29;19914;-94
2022/12/17 15:04:31;;;;;;;;;;;;;;;11.44;88.33;99936.22;4936598;29;20025;-89
2022/12/17 15:06:58;;;;;;;;;;;;;;;11.62;86.79;99939.50;4953918;28;20440;-94
2022/12/17 15:09:23;;;;;;;;;;;;;;;11.44;87.32;99945.91;4956866;29;19950;-94
2022/12/17 15:11:49;;;;;;;;;;;;;;;11.45;87.65;99947.69;4958063;29;19918;-89
2022/12/17 15:14:14;;;;;;;;;;;;;;;11.47;86.40;99951.16;4948722;29;20386;-91
2022/12/17 15:16:40;;;;;;;;;;;;;;;11.56;86.00;99953.66;4933946;29;19918;-91
2022/12/17 15:19:06;;;;;;;;;;;;;;;11.37;87.20;99960.09;4919389;29;19922;-93
2022/12/17 15:21:32;;;;;;;;;;;;;;;11.13;89.29;99961.31;4939412;29;19918;-96
2022/12/17 15:24:00;;;;;;;;;;;;;;;11.39;88.95;99979.47;4938399;29;19921;-96
2022/12/17 15:26:26;;;;;;;;;;;;;;;11.41;88.64;99983.81;4938287;29;19915;-96
2022/12/17 15:28:52;;;;;;;;;;;;;;;11.65;87.20;99998.44;4939395;29;19915;-95
2022/12/17 15:31:18;;;;;;;;;;;;;;;11.83;86.35;100005.25;4924422;29;19919;-96
2022/12/17 15:33:44;;;;;;;;;;;;;;;11.84;85.27;100011.38;4937337;29;20627;-96
2022/12/17 15:36:13;;;;;;;;;;;;;;;11.83;85.60;100023.75;4920142;29;20021;-95
2022/12/17 15:38:40;;;;;;;;;;;;;;;11.50;86.50;100030.38;4935561;29;19918;-93
2022/12/17 15:44:06;;;;;;;;;;;;;;;10.74;92.66;100068.19;4914604;29;19919;-93
2022/12/17 15:46:32;;;;;;;;;;;;;;;10.66;93.52;100082.34;4919634;29;19915;-93
2022/12/17 15:48:59;;;;;;;;;;;;;;;10.73;94.18;100086.69;4936806;29;20009;-93
2022/12/17 15:51:24;;;;;;;;;;;;;;;10.85;94.78;100089.19;4936487;29;19929;-96
2022/12/17 15:53:50;;;;;;;;;;;;;;;11.09;93.75;100089.84;4932453;29;19978;-94
2022/12/17 15:56:20;;;;;;;;;;;;;;;11.27;92.73;100102.81;4936112;29;19915;-94
2022/12/17 15:58:46;;;;;;;;;;;;;;;11.32;92.47;100092.22;4935931;29;19924;-94
2022/12/17 16:01:12;;;;;;;;;;;;;;;11.60;91.34;100078.66;4951193;29;19926;-94
2022/12/17 16:03:38;;;;;;;;;;;;;;;11.52;90.87;100036.50;4935759;29;19919;-95
2022/12/17 16:06:03;;;;;;;;;;;;;;;10.48;97.15;99944.47;4937222;29;19919;-94
2022/12/17 16:08:29;;;;;;;;;;;;;;;10.13;100.00;99916.69;4941029;29;19919;-91
2022/12/17 16:10:56;;;;;;;;;;;;;;;10.41;100.00;99949.81;4921753;29;19977;-95
2022/12/17 16:13:23;;;;;;;;;;;;;;;10.86;100.00;99964.28;4923285;29;19926;-90
2022/12/17 16:15:55;;;;;;;;;;;;;;;11.06;98.29;99964.03;4954535;29;19997;-91
2022/12/17 16:18:22;;;;;;;;;;;;;;;11.10;97.85;99956.94;4954224;29;20016;-92
2022/12/17 16:20:47;;;;;;;;;;;;;;;11.08;97.58;99945.53;4936769;29;19914;-91
2022/12/17 16:23:14;;;;;;;;;;;;;;;10.97;97.38;99944.78;4954169;29;19918;-91
2022/12/17 16:25:39;;;;;;;;;;;;;;;11.03;97.63;99956.16;4953894;29;20381;-89
2022/12/17 16:28:05;;;;;;;;;;;;;;;10.86;98.35;99974.84;4953843;29;19921;-91
2022/12/17 16:30:30;;;;;;;;;;;;;;;10.84;98.47;99955.50;4953019;29;20356;-94
2022/12/17 16:32:59;;;;;;;;;;;;;;;10.84;97.92;99955.50;4938506;29;20041;-89
2022/12/17 16:35:25;;;;;;;;;;;;;;;10.57;99.97;99967.25;4958220;28;20313;-91
2022/12/17 16:37:51;;;;;;;;;;;;;;;10.52;100.00;99969.94;4953679;29;19941;-90
2022/12/17 16:40:17;;;;;;;;;;;;;;;10.74;100.00;99964.44;4954566;29;19918;-91
2022/12/17 16:42:42;;;;;;;;;;;;;;;10.90;98.74;99965.09;4952335;29;20309;-91
2022/12/17 16:45:08;;;;;;;;;;;;;;;10.75;98.73;99961.78;4952222;29;19918;-88
2022/12/17 16:47:34;;;;;;;;;;;;;;;10.75;98.87;99960.88;4943832;29;20013;-91
2022/12/17 16:50:00;;;;;;;;;;;;;;;11.02;98.45;99970.25;4936354;29;19921;-90
2022/12/17 16:52:26;;;;;;;;;;;;;;;11.13;97.27;99969.25;4952348;29;19914;-90
2022/12/17 16:54:51;;;;;;;;;;;;;;;11.26;95.81;99969.06;4953378;29;20412;-91
2022/12/17 16:57:16;;;;;;;;;;;;;;;11.10;96.07;99975.41;4953044;29;19915;-90
2022/12/17 16:59:49;;;;;;;;;;;;;;;11.04;96.60;99972.84;4940772;29;19918;-93
2022/12/17 17:02:17;;;;;;;;;;;;;;;10.92;97.51;99969.50;4949208;29;20008;-92
2022/12/17 17:04:42;;;;;;;;;;;;;;;10.70;98.93;99962.69;4953873;29;19914;-90
2022/12/17 17:07:07;;;;;;;;;;;;;;;10.97;97.71;99973.81;4943566;29;19924;-91
2022/12/17 17:09:33;;;;;;;;;;;;;;;10.98;96.72;99994.06;4953312;29;19922;-91
2022/12/17 17:11:58;;;;;;;;;;;;;;;10.82;97.41;99999.50;4953357;28;19918;-90
2022/12/17 17:14:24;;;;;;;;;;;;;;;10.36;100.00;99992.06;4952593;29;19930;-91
2022/12/17 17:16:50;;;;;;;;;;;;;;;10.45;100.00;99988.47;4952643;29;19914;-90
2022/12/17 17:19:15;;;;;;;;;;;;;;;10.35;100.00;99995.63;4953326;29;19949;-93
2022/12/17 17:21:47;;;;;;;;;;;;;;;10.51;100.00;99999.81;4951755;28;20651;-92
2022/12/17 17:24:14;;;;;;;;;;;;;;;10.53;100.00;100002.44;4949429;29;19931;-92
2022/12/17 17:26:41;;;;;;;;;;;;;;;10.44;100.00;99999.91;4951581;29;19946;-93
2022/12/17 17:29:06;;;;;;;;;;;;;;;10.31;100.00;100004.41;4952423;28;19944;-91
2022/12/17 17:31:32;;;;;;;;;;;;;;;10.43;100.00;99998.19;4953053;29;20321;-94
2022/12/17 17:33:58;;;;;;;;;;;;;;;10.32;100.00;100011.44;4954061;29;19926;-93
2022/12/17 17:36:24;;;;;;;;;;;;;;;10.61;100.00;100019.06;4952927;29;19918;-93
2022/12/17 17:38:51;;;;;;;;;;;;;;;10.36;100.00;100014.06;4937864;29;19977;-93
2022/12/17 17:41:19;;;;;;;;;;;;;;;10.61;100.00;100012.94;4951767;29;19929;-94
2022/12/17 17:43:46;;;;;;;;;;;;;;;10.61;100.00;100023.47;4954291;29;19925;-93
2022/12/17 17:46:14;;;;;;;;;;;;;;;10.46;100.00;100024.53;4955801;29;19914;-93
2022/12/17 17:48:39;;;;;;;;;;;;;;;10.60;100.00;100027.00;4941973;29;20020;-93
2022/12/17 17:51:10;;;;;;;;;;;;;;;10.79;100.00;100025.94;4956736;29;19922;-91
2022/12/17 17:53:36;;;;;;;;;;;;;;;10.98;99.14;100038.94;4954018;29;19965;-92
2022/12/17 17:56:02;;;;;;;;;;;;;;;11.07;98.51;100042.31;4952241;29;19914;-90
2022/12/17 17:58:28;;;;;;;;;;;;;;;11.18;96.46;100050.13;4941816;29;20290;-91
2022/12/17 18:00:53;;;;;;;;;;;;;;;10.90;97.21;100041.66;4933915;29;19978;-94
2022/12/17 18:03:19;;;;;;;;;;;;;;;11.23;96.16;100056.25;4933533;29;20001;-94
2022/12/17 18:05:44;;;;;;;;;;;;;;;11.16;94.40;100057.19;4953761;29;19980;-91
2022/12/17 18:08:09;;;;;;;;;;;;;;;11.16;93.93;100046.63;4955819;29;19922;-93
2022/12/17 18:10:39;;;;;;;;;;;;;;;11.10;93.39;100031.72;4937546;29;19922;-92
2022/12/17 18:15:48;;;;;;;;;;;;;;;11.00;92.78;100039.78;4950948;29;19969;-92
2022/12/17 18:18:16;;;;;;;;;;;;;;;11.01;92.17;100052.09;4951839;29;20328;-92
2022/12/17 18:20:41;;;;;;;;;;;;;;;10.90;91.46;100053.06;4931321;29;20428;-93
2022/12/17 18:23:07;;;;;;;;;;;;;;;10.61;93.24;100052.50;4918880;29;19922;-94
2022/12/17 18:25:33;;;;;;;;;;;;;;;10.48;94.89;100067.56;4953823;29;19928;-93
2022/12/17 18:27:59;;;;;;;;;;;;;;;10.44;93.87;100084.31;4954583;29;20403;-94
2022/12/17 18:30:26;;;;;;;;;;;;;;;10.14;95.54;100089.75;4938632;29;19927;-93
2022/12/17 18:32:51;;;;;;;;;;;;;;;10.26;95.35;100090.59;4941441;29;20009;-94
2022/12/17 18:35:19;;;;;;;;;;;;;;;10.30;94.82;100090.53;4952040;28;20551;-93
2022/12/17 18:37:44;;;;;;;;;;;;;;;10.39;92.88;100087.88;4956996;29;19923;-93
2022/12/17 18:40:11;;;;;;;;;;;;;;;10.39;92.88;100092.25;4956690;29;19925;-93
2022/12/17 18:45:23;;;;;;;;;;;;;;;10.11;93.08;100102.97;4955435;29;19964;-94
2022/12/17 18:47:49;;;;;;;;;;;;;;;9.94;93.80;100107.47;4937091;29;20024;-92
2022/12/17 18:50:15;;;;;;;;;;;;;;;9.68;94.03;100111.09;4945426;29;20656;-93
2022/12/17 18:52:40;;;;;;;;;;;;;;;9.63;93.47;100107.63;4931868;29;19922;-92
2022/12/17 18:55:08;;;;;;;;;;;;;;;9.72;94.01;100104.09;4933682;29;19926;-94
2022/12/17 18:57:33;;;;;;;;;;;;;;;9.87;94.89;100101.38;4934532;29;19977;-94
2022/12/17 18:59:59;;;;;;;;;;;;;;;9.91;93.85;100113.63;4934705;29;19968;-95
2022/12/17 19:02:26;;;;;;;;;;;;;;;9.98;93.68;100106.59;4917909;29;20429;-94
2022/12/17 19:04:52;;;;;;;;;;;;;;;9.91;93.73;100105.72;4949457;29;19922;-93
2022/12/17 19:07:17;;;;;;;;;;;;;;;9.63;92.74;100110.25;4932441;29;19918;-92
2022/12/17 19:09:42;;;;;;;;;;;;;;;9.60;92.80;100107.63;4950088;29;20368;-94
2022/12/17 19:12:08;;;;;;;;;;;;;;;9.50;92.97;100123.47;4950140;29;20282;-90
2022/12/17 19:14:34;;;;;;;;;;;;;;;9.35;94.34;100133.19;4951747;29;20448;-92
2022/12/17 19:16:59;;;;;;;;;;;;;;;9.22;94.38;100130.59;4948573;29;19926;-89
2022/12/17 19:19:25;;;;;;;;;;;;;;;9.23;94.91;100107.78;4950931;29;19956;-90
2022/12/17 19:21:52;;;;;;;;;;;;;;;9.45;93.81;100114.72;4955075;29;19934;-93
2022/12/17 19:24:19;;;;;;;;;;;;;;;9.42;94.11;100125.28;4950322;29;19922;-90
2022/12/17 19:26:45;;;;;;;;;;;;;;;9.46;94.44;100124.38;4934004;29;20025;-89
2022/12/17 19:29:11;;;;;;;;;;;;;;;9.55;94.77;100139.28;4947086;29;20009;-90
2022/12/17 19:31:36;;;;;;;;;;;;;;;9.76;95.10;100147.94;4936643;29;20381;-91
2022/12/17 19:34:03;;;;;;;;;;;;;;;9.65;96.31;100159.44;4953193;28;19977;-91
2022/12/17 19:36:30;;;;;;;;;;;;;;;9.82;96.20;100155.84;4951103;29;19921;-89
2022/12/17 19:38:57;;;;;;;;;;;;;;;9.72;96.48;100172.59;4953068;29;20450;-89
2022/12/17 19:41:22;;;;;;;;;;;;;;;9.72;94.69;100173.44;4955139;29;20293;-90
2022/12/17 19:43:52;;;;;;;;;;;;;;;9.71;95.46;100170.81;4954601;29;19918;-91
2022/12/17 19:46:18;;;;;;;;;;;;;;;9.73;96.49;100163.78;4953954;29;19914;-91
2022/12/17 19:48:44;;;;;;;;;;;;;;;9.84;96.60;100159.34;4954353;29;19922;-88
2022/12/17 19:51:11;;;;;;;;;;;;;;;10.01;94.88;100167.19;4952794;29;20301;-91
2022/12/17 19:53:37;;;;;;;;;;;;;;;10.10;94.76;100179.41;4954699;28;19918;-89
2022/12/17 19:56:08;;;;;;;;;;;;;;;9.92;97.89;100185.66;4954108;29;19969;-90
2022/12/17 19:58:34;;;;;;;;;;;;;;;10.05;98.24;100192.63;4949936;29;19926;-89
2022/12/17 20:01:06;;;;;;;;;;;;;;;10.03;99.13;100184.72;4953546;29;19914;-88
2022/12/17 20:03:32;;;;;;;;;;;;;;;10.07;99.17;100201.41;4952933;29;19953;-90
2022/12/17 20:05:57;;;;;;;;;;;;;;;10.02;98.78;100226.91;4947306;29;19992;-87
2022/12/17 20:08:23;;;;;;;;;;;;;;;10.02;99.51;100232.16;4951604;29;19919;-89
2022/12/17 20:10:49;;;;;;;;;;;;;;;10.15;99.15;100222.47;4951791;29;19954;-88
2022/12/17 20:13:19;;;;;;;;;;;;;;;10.24;98.90;100216.25;4952808;29;19957;-88
2022/12/17 20:15:44;;;;;;;;;;;;;;;10.20;98.53;100202.22;4950479;29;19928;-90
2022/12/17 20:18:10;;;;;;;;;;;;;;;10.30;100.00;100205.66;4949784;29;20385;-89
2022/12/17 20:20:36;;;;;;;;;;;;;;;10.45;99.98;100208.25;4947621;29;19922;-89
2022/12/17 20:23:01;;;;;;;;;;;;;;;10.57;99.52;100220.50;4942555;29;20673;-88
2022/12/17 20:25:28;;;;;;;;;;;;;;;10.69;99.79;100208.97;4933334;29;19957;-89
2022/12/17 20:27:53;;;;;;;;;;;;;;;10.83;98.17;100175.44;4949103;29;19922;-89
2022/12/17 20:30:18;;;;;;;;;;;;;;;10.44;99.91;100180.16;4949973;29;19970;-89
2022/12/17 20:32:44;;;;;;;;;;;;;;;10.51;100.00;100183.59;4950959;29;19922;-89
2022/12/17 20:35:09;;;;;;;;;;;;;;;10.54;99.06;100189.72;4946789;29;19921;-90
2022/12/17 20:37:35;;;;;;;;;;;;;;;10.49;98.74;100185.38;4949014;29;20393;-89
2022/12/17 20:40:01;;;;;;;;;;;;;;;10.41;98.69;100177.53;4949049;29;19922;-88
2022/12/17 20:42:27;;;;;;;;;;;;;;;10.30;99.33;100163.47;4948955;29;19957;-90
2022/12/17 20:44:52;;;;;;;;;;;;;;;10.12;100.00;100161.84;4949297;29;19961;-89
2022/12/17 20:47:17;;;;;;;;;;;;;;;10.27;100.00;100169.66;4948519;28;19914;-88
2022/12/17 20:49:43;;;;;;;;;;;;;;;10.37;99.06;100171.38;4956256;29;20528;-88
2022/12/17 20:52:08;;;;;;;;;;;;;;;10.24;99.19;100184.63;4949413;29;19914;-86
2022/12/17 20:54:33;;;;;;;;;;;;;;;10.51;99.33;100200.28;4932482;29;20301;-88
2022/12/17 20:57:00;;;;;;;;;;;;;;;10.60;97.66;100209.91;4950299;29;19926;-89
2022/12/17 20:59:25;;;;;;;;;;;;;;;10.36;97.20;100222.38;4950410;29;20278;-87
2022/12/17 21:01:51;;;;;;;;;;;;;;;10.41;98.04;100217.09;4950075;29;20389;-86
2022/12/17 21:04:16;;;;;;;;;;;;;;;10.53;97.24;100222.28;4950171;29;19914;-89
2022/12/17 21:06:42;;;;;;;;;;;;;;;10.14;99.34;100233.88;4950415;29;19969;-89
2022/12/17 21:09:08;;;;;;;;;;;;;;;10.33;97.78;100230.31;4952927;29;19958;-89
2022/12/17 21:11:35;;;;;;;;;;;;;;;10.24;98.52;100232.06;4941235;29;19954;-90
2022/12/17 21:14:07;;;;;;;;;;;;;;;9.90;100.00;100245.38;4933119;29;20006;-89
2022/12/17 21:16:33;;;;;;;;;;;;;;;9.90;100.00;100241.03;4936101;29;20420;-89
2022/12/17 21:19:05;;;;;;;;;;;;;;;9.83;100.00;100236.66;4950993;28;19922;-90
2022/12/17 21:21:36;;;;;;;;;;;;;;;9.79;100.00;100253.31;4942539;29;20381;-87
2022/12/17 21:24:05;;;;;;;;;;;;;;;9.85;100.00;100250.69;4951441;29;19930;-89
2022/12/17 21:26:33;;;;;;;;;;;;;;;9.90;100.00;100248.94;4951864;29;19922;-90
2022/12/17 21:29:02;;;;;;;;;;;;;;;10.14;100.00;100242.66;4951126;29;20385;-88
2022/12/17 21:31:29;;;;;;;;;;;;;;;10.30;100.00;100243.47;4950508;29;19915;-87
2022/12/17 21:33:56;;;;;;;;;;;;;;;10.16;100.00;100262.00;4950326;29;19962;-90
2022/12/17 21:36:26;;;;;;;;;;;;;;;10.30;100.00;100258.41;4950285;29;19918;-89
2022/12/17 21:38:53;;;;;;;;;;;;;;;10.53;99.20;100259.22;4944899;29;20324;-88
2022/12/17 21:41:21;;;;;;;;;;;;;;;10.62;97.57;100265.31;4929496;29;19929;-89
2022/12/17 21:43:52;;;;;;;;;;;;;;;10.61;97.58;100263.56;4929375;29;19918;-89
2022/12/17 21:46:18;;;;;;;;;;;;;;;10.62;96.41;100262.69;4928640;29;19918;-88
2022/12/17 21:48:51;;;;;;;;;;;;;;;10.66;95.97;100267.03;4931936;29;20001;-90
2022/12/17 21:51:20;;;;;;;;;;;;;;;10.49;95.52;100265.38;4930674;29;19915;-90
2022/12/17 21:53:52;;;;;;;;;;;;;;;10.59;95.37;100265.34;4931739;29;19922;-90
2022/12/17 21:56:22;;;;;;;;;;;;;;;10.63;94.69;100261.78;4931561;29;20401;-89
2022/12/17 21:58:49;;;;;;;;;;;;;;;10.51;93.82;100260.97;4939834;29;19957;-92
2022/12/17 22:01:22;;;;;;;;;;;;;;;10.60;93.39;100257.41;4952848;28;20281;-89
2022/12/17 22:03:48;;;;;;;;;;;;;;;10.42;93.98;100255.75;4953242;28;19966;-91
2022/12/17 22:06:15;;;;;;;;;;;;;;;10.41;93.86;100250.47;4952970;28;19919;-90
2022/12/17 22:08:41;;;;;;;;;;;;;;;10.20;93.88;100253.19;4952873;28;19918;-88
2022/12/17 22:11:12;;;;;;;;;;;;;;;10.13;93.66;100248.84;4953104;29;19914;-87
2022/12/17 22:16:25;;;;;;;;;;;;;;;10.23;92.52;100241.75;4952548;29;20448;-88
2022/12/17 22:18:52;;;;;;;;;;;;;;;10.17;93.47;100252.31;4949449;29;20385;-88
2022/12/17 22:21:26;;;;;;;;;;;;;;;10.22;93.88;100253.16;4951262;29;20373;-88
2022/12/17 22:23:54;;;;;;;;;;;;;;;10.34;91.19;100261.06;4950558;29;20013;-88
2022/12/17 22:26:20;;;;;;;;;;;;;;;10.08;92.31;100271.69;4952274;29;20009;-88
2022/12/17 22:28:54;;;;;;;;;;;;;;;10.03;92.40;100284.88;4951977;29;20044;-89
2022/12/17 22:34:13;;;;;;;;;;;;;;;9.86;92.49;100278.78;4933695;29;19949;-86
2022/12/17 22:36:39;;;;;;;;;;;;;;;9.88;92.49;100289.34;4932262;29;19981;-89
2022/12/17 22:39:17;;;;;;;;;;;;;;;9.78;92.02;100291.13;4962493;28;20002;-89
2022/12/17 22:44:36;;;;;;;;;;;;;;;9.75;93.69;100296.41;4952142;29;19989;-90
2022/12/17 22:47:02;;;;;;;;;;;;;;;9.84;93.28;100286.69;4951927;29;20316;-90
2022/12/17 22:49:34;;;;;;;;;;;;;;;9.78;93.89;100288.47;4951971;29;19926;-90
2022/12/17 22:52:08;;;;;;;;;;;;;;;9.88;93.95;100295.47;4952107;29;20409;-89
2022/12/17 22:54:38;;;;;;;;;;;;;;;10.09;93.27;100302.44;4954416;29;19966;-89
2022/12/17 22:57:11;;;;;;;;;;;;;;;10.12;91.33;100306.84;4953313;29;20364;-90
2022/12/17 22:59:38;;;;;;;;;;;;;;;9.89;91.71;100301.63;4952127;28;19914;-89
2022/12/17 23:02:11;;;;;;;;;;;;;;;9.80;92.13;100310.44;4952552;29;19965;-90
2022/12/17 23:04:41;;;;;;;;;;;;;;;9.64;93.32;100310.44;4950949;29;19922;-86
2022/12/17 23:07:10;;;;;;;;;;;;;;;9.82;92.45;100324.47;4950615;29;19950;-89
2022/12/17 23:09:41;;;;;;;;;;;;;;;9.85;92.45;100329.72;4950521;28;19929;-89
2022/12/17 23:15:04;;;;;;;;;;;;;;;10.08;93.29;100327.03;4951582;29;19933;-91
2022/12/17 23:17:35;;;;;;;;;;;;;;;10.14;92.39;100327.03;4949069;29;20384;-88
2022/12/17 23:20:12;;;;;;;;;;;;;;;9.72;94.38;100339.41;4950190;29;19930;-89
2022/12/17 23:22:46;;;;;;;;;;;;;;;9.65;95.14;100332.41;4951125;29;20620;-88
2022/12/17 23:25:17;;;;;;;;;;;;;;;9.23;99.19;100313.09;4949035;29;20286;-90
2022/12/17 23:27:45;;;;;;;;;;;;;;;9.30;100.00;100333.31;4950216;29;19918;-89
2022/12/17 23:30:13;;;;;;;;;;;;;;;9.62;99.60;100341.19;4940129;29;20001;-90
2022/12/17 23:32:39;;;;;;;;;;;;;;;9.91;98.03;100336.75;4931762;29;19942;-89
2022/12/17 23:35:05;;;;;;;;;;;;;;;9.79;97.74;100338.53;4938536;29;20579;-89
2022/12/17 23:37:30;;;;;;;;;;;;;;;9.47;99.16;100334.16;4945817;29;20013;-88
2022/12/17 23:39:59;;;;;;;;;;;;;;;9.56;100.00;100330.66;4931328;29;20081;-89
2022/12/17 23:42:28;;;;;;;;;;;;;;;9.73;99.85;100333.28;4941533;29;20005;-89
2022/12/17 23:44:55;;;;;;;;;;;;;;;9.84;99.57;100354.34;4947010;29;19985;-88
2022/12/17 23:47:23;;;;;;;;;;;;;;;9.95;98.95;100367.50;4951923;29;19918;-89
2022/12/17 23:49:50;;;;;;;;;;;;;;;10.13;97.00;100361.28;4950956;29;19918;-90
2022/12/17 23:52:17;;;;;;;;;;;;;;;9.85;97.19;100372.78;4936008;29;19918;-91
2022/12/17 23:54:57;;;;;;;;;;;;;;;10.00;97.33;100371.00;4933293;29;19915;-89
2022/12/17 23:57:30;;;;;;;;;;;;;;;10.02;95.60;100366.59;4931867;29;19942;-89
